createdAt,value
2023-07-11T00:00:02.845Z,1016.7
2023-07-11T00:01:01.852Z,1016.7
2023-07-11T00:02:02.742Z,1016.7
2023-07-11T00:03:02.434Z,1016.7
2023-07-11T00:04:02.377Z,1016.6
2023-07-11T00:05:02.118Z,1016.6
2023-07-11T00:06:02.154Z,1016.6
2023-07-11T00:07:02.031Z,1016.7
2023-07-11T00:08:02.150Z,1016.6
2023-07-11T00:09:01.932Z,1016.7
2023-07-11T00:10:01.938Z,1016.6
2023-07-11T00:11:01.823Z,1016.7
2023-07-11T00:12:01.808Z,1016.7
2023-07-11T00:13:01.622Z,1016.7
2023-07-11T00:14:01.749Z,1016.7
2023-07-11T00:15:02.625Z,1016.8
2023-07-11T00:16:02.663Z,1016.8
2023-07-11T00:18:02.759Z,1016.7
2023-07-11T00:19:02.522Z,1016.8
2023-07-11T00:20:02.585Z,1016.8
2023-07-11T00:21:02.425Z,1016.8
2023-07-11T00:22:02.505Z,1016.9
2023-07-11T00:23:02.365Z,1017
2023-07-11T00:24:02.388Z,1016.9
2023-07-11T00:25:02.349Z,1017
2023-07-11T00:26:02.149Z,1017
2023-07-11T00:27:02.161Z,1016.9
2023-07-11T00:28:02.199Z,1016.9
2023-07-11T00:29:02.074Z,1016.8
2023-07-11T00:30:02.287Z,1016.9
2023-07-11T00:31:02.265Z,1016.9
2023-07-11T00:32:02.063Z,1016.9
2023-07-11T00:33:02.243Z,1016.8
2023-07-11T00:34:01.846Z,1016.9
2023-07-11T00:35:01.921Z,1017
2023-07-11T00:36:01.764Z,1016.9
2023-07-11T00:37:01.769Z,1016.9
2023-07-11T00:38:01.668Z,1016.9
2023-07-11T00:39:01.735Z,1016.8
2023-07-11T00:40:01.587Z,1016.8
2023-07-11T00:41:02.642Z,1016.8
2023-07-11T00:42:02.500Z,1016.8
2023-07-11T00:43:02.580Z,1016.8
2023-07-11T00:44:02.442Z,1016.8
2023-07-11T00:45:02.407Z,1016.8
2023-07-11T00:46:02.252Z,1016.8
2023-07-11T00:47:02.262Z,1016.8
2023-07-11T00:48:02.439Z,1016.8
2023-07-11T00:49:02.090Z,1016.9
2023-07-11T00:50:02.240Z,1016.8
2023-07-11T00:51:02.105Z,1016.8
2023-07-11T00:52:02.163Z,1016.8
2023-07-11T00:53:02.013Z,1016.8
2023-07-11T00:54:02.108Z,1016.9
2023-07-11T00:55:02.005Z,1016.8
2023-07-11T00:56:02.053Z,1016.8
2023-07-11T00:57:01.915Z,1016.8
2023-07-11T00:58:02.099Z,1016.8
2023-07-11T00:59:01.931Z,1016.9
2023-07-11T01:00:02.997Z,1016.9
2023-07-11T01:01:02.060Z,1017
2023-07-11T01:02:01.816Z,1016.9
2023-07-11T01:03:02.063Z,1016.9
2023-07-11T01:04:01.915Z,1016.8
2023-07-11T01:05:01.788Z,1016.9
2023-07-11T01:06:01.642Z,1016.9
2023-07-11T01:07:01.722Z,1017
2023-07-11T01:08:02.656Z,1016.9
2023-07-11T01:09:02.551Z,1016.9
2023-07-11T01:10:02.646Z,1016.8
2023-07-11T01:11:02.437Z,1016.8
2023-07-11T01:12:02.524Z,1016.8
2023-07-11T01:13:02.337Z,1016.8
2023-07-11T01:14:02.633Z,1016.8
2023-07-11T01:15:02.645Z,1016.8
2023-07-11T01:16:02.278Z,1016.8
2023-07-11T01:18:02.074Z,1016.8
2023-07-11T01:19:01.889Z,1016.8
2023-07-11T01:20:01.979Z,1016.8
2023-07-11T01:21:01.828Z,1016.8
2023-07-11T01:22:01.848Z,1016.8
2023-07-11T01:23:01.766Z,1016.9
2023-07-11T01:24:02.030Z,1016.9
2023-07-11T01:25:01.824Z,1016.8
2023-07-11T01:26:01.933Z,1016.8
2023-07-11T01:27:01.806Z,1016.8
2023-07-11T01:28:01.802Z,1016.8
2023-07-11T01:29:01.714Z,1016.9
2023-07-11T01:30:01.796Z,1016.8
2023-07-11T01:31:01.830Z,1016.8
2023-07-11T01:32:01.875Z,1016.8
2023-07-11T01:33:02.033Z,1016.8
2023-07-11T01:34:01.792Z,1016.8
2023-07-11T01:35:01.867Z,1016.9
2023-07-11T01:36:01.830Z,1016.8
2023-07-11T01:37:01.790Z,1016.8
2023-07-11T01:38:01.659Z,1016.8
2023-07-11T01:39:01.670Z,1016.8
2023-07-11T01:40:01.647Z,1016.8
2023-07-11T01:41:02.685Z,1016.9
2023-07-11T01:42:02.536Z,1016.9
2023-07-11T01:43:02.561Z,1016.8
2023-07-11T01:44:02.486Z,1016.9
2023-07-11T01:45:02.542Z,1016.8
2023-07-11T01:46:02.573Z,1016.9
2023-07-11T01:47:02.500Z,1016.9
2023-07-11T01:48:02.720Z,1017
2023-07-11T01:49:02.403Z,1017
2023-07-11T01:50:02.543Z,1017
2023-07-11T01:51:02.362Z,1017.1
2023-07-11T01:52:02.390Z,1017.1
2023-07-11T01:53:02.328Z,1017
2023-07-11T01:54:02.176Z,1017.1
2023-07-11T01:55:02.237Z,1017.1
2023-07-11T01:56:02.261Z,1017.1
2023-07-11T01:57:02.182Z,1017.2
2023-07-11T01:58:02.154Z,1017.2
2023-07-11T01:59:02.085Z,1017.2
2023-07-11T02:00:03.312Z,1017.2
2023-07-11T02:01:02.038Z,1017.2
2023-07-11T02:02:02.076Z,1017.1
2023-07-11T02:03:02.384Z,1017.1
2023-07-11T02:04:02.313Z,1017.1
2023-07-11T02:05:02.102Z,1017.1
2023-07-11T02:06:02.198Z,1017.1
2023-07-11T02:07:02.028Z,1017.2
2023-07-11T02:08:02.523Z,1017.1
2023-07-11T02:09:02.244Z,1017.2
2023-07-11T02:10:02.196Z,1017.2
2023-07-11T02:11:02.210Z,1017.2
2023-07-11T02:12:02.215Z,1017.1
2023-07-11T02:13:01.991Z,1017.2
2023-07-11T02:14:02.148Z,1017.2
2023-07-11T02:15:01.899Z,1017.2
2023-07-11T02:16:02.046Z,1017.2
2023-07-11T02:17:02.272Z,1017.2
2023-07-11T02:18:02.107Z,1017.2
2023-07-11T02:19:02.040Z,1017.2
2023-07-11T02:20:01.933Z,1017.2
2023-07-11T02:21:01.969Z,1017.2
2023-07-11T02:22:01.739Z,1017.2
2023-07-11T02:23:01.822Z,1017.2
2023-07-11T02:24:01.654Z,1017.2
2023-07-11T02:25:01.726Z,1017.2
2023-07-11T02:26:01.642Z,1017.2
2023-07-11T02:27:02.630Z,1017.2
2023-07-11T02:28:02.492Z,1017.2
2023-07-11T02:29:02.588Z,1017.2
2023-07-11T02:30:02.467Z,1017.3
2023-07-11T02:31:02.460Z,1017.2
2023-07-11T02:32:02.357Z,1017.2
2023-07-11T02:33:02.442Z,1017.2
2023-07-11T02:34:02.288Z,1017.2
2023-07-11T02:35:02.121Z,1017.2
2023-07-11T02:36:02.205Z,1017.3
2023-07-11T02:37:02.251Z,1017.2
2023-07-11T02:38:02.305Z,1017.3
2023-07-11T02:39:02.127Z,1017.3
2023-07-11T02:40:02.011Z,1017.3
2023-07-11T02:41:01.998Z,1017.3
2023-07-11T02:42:01.851Z,1017.3
2023-07-11T02:43:01.971Z,1017.3
2023-07-11T02:44:01.816Z,1017.3
2023-07-11T02:45:01.806Z,1017.3
2023-07-11T02:46:01.825Z,1017.2
2023-07-11T02:47:02.345Z,1017.3
2023-07-11T02:48:02.642Z,1017.3
2023-07-11T02:49:02.395Z,1017.3
2023-07-11T02:50:02.316Z,1017.3
2023-07-11T02:51:02.303Z,1017.3
2023-07-11T02:52:02.212Z,1017.3
2023-07-11T02:53:02.094Z,1017.3
2023-07-11T02:54:02.102Z,1017.2
2023-07-11T02:55:02.089Z,1017.3
2023-07-11T02:56:02.204Z,1017.3
2023-07-11T02:57:02.065Z,1017.3
2023-07-11T02:58:02.075Z,1017.3
2023-07-11T02:59:01.962Z,1017.3
2023-07-11T03:00:03.138Z,1017.3
2023-07-11T03:01:02.124Z,1017.4
2023-07-11T03:02:02.163Z,1017.3
2023-07-11T03:03:02.266Z,1017.3
2023-07-11T03:04:02.020Z,1017.3
2023-07-11T03:05:02.131Z,1017.2
2023-07-11T03:06:02.012Z,1017.3
2023-07-11T03:07:02.022Z,1017.3
2023-07-11T03:08:01.886Z,1017.3
2023-07-11T03:09:01.955Z,1017.3
2023-07-11T03:10:01.810Z,1017.3
2023-07-11T03:11:01.758Z,1017.3
2023-07-11T03:12:01.670Z,1017.3
2023-07-11T03:13:01.711Z,1017.3
2023-07-11T03:14:02.744Z,1017.3
2023-07-11T03:15:05.350Z,1017.3
2023-07-11T03:16:01.918Z,1017.3
2023-07-11T03:17:02.326Z,1017.3
2023-07-11T03:18:02.325Z,1017.3
2023-07-11T03:19:02.013Z,1017.4
2023-07-11T03:20:02.164Z,1017.3
2023-07-11T03:21:01.870Z,1017.3
2023-07-11T03:22:01.893Z,1017.3
2023-07-11T03:23:01.860Z,1017.4
2023-07-11T03:24:01.919Z,1017.4
2023-07-11T03:25:01.828Z,1017.4
2023-07-11T03:26:01.749Z,1017.5
2023-07-11T03:27:02.486Z,1017.5
2023-07-11T03:28:02.415Z,1017.4
2023-07-11T03:29:02.266Z,1017.5
2023-07-11T03:30:02.269Z,1017.5
2023-07-11T03:31:02.226Z,1017.4
2023-07-11T03:32:02.196Z,1017.4
2023-07-11T03:33:02.476Z,1017.4
2023-07-11T03:34:02.232Z,1017.3
2023-07-11T03:35:04.515Z,1017.4
2023-07-11T03:36:02.123Z,1017.4
2023-07-11T03:37:02.895Z,1017.4
2023-07-11T03:38:01.856Z,1017.5
2023-07-11T03:39:01.896Z,1017.5
2023-07-11T03:40:01.813Z,1017.4
2023-07-11T03:41:01.750Z,1017.4
2023-07-11T03:42:01.667Z,1017.5
2023-07-11T03:43:01.855Z,1017.4
2023-07-11T03:44:01.782Z,1017.4
2023-07-11T03:45:01.805Z,1017.5
2023-07-11T03:46:01.668Z,1017.5
2023-07-11T03:47:02.008Z,1017.4
2023-07-11T03:48:01.939Z,1017.5
2023-07-11T03:49:01.697Z,1017.4
2023-07-11T03:50:01.777Z,1017.4
2023-07-11T03:51:02.628Z,1017.4
2023-07-11T03:52:02.464Z,1017.5
2023-07-11T03:53:02.517Z,1017.4
2023-07-11T03:54:02.401Z,1017.4
2023-07-11T03:55:02.458Z,1017.4
2023-07-11T03:56:02.329Z,1017.5
2023-07-11T03:57:02.394Z,1017.5
2023-07-11T03:58:02.385Z,1017.5
2023-07-11T03:59:02.242Z,1017.5
2023-07-11T04:00:03.232Z,1017.5
2023-07-11T04:01:02.158Z,1017.5
2023-07-11T04:02:02.365Z,1017.5
2023-07-11T04:03:02.865Z,1017.5
2023-07-11T04:04:01.855Z,1017.6
2023-07-11T04:05:02.698Z,1017.5
2023-07-11T04:06:02.640Z,1017.5
2023-07-11T04:07:02.660Z,1017.6
2023-07-11T04:08:02.547Z,1017.6
2023-07-11T04:09:02.564Z,1017.5
2023-07-11T04:10:02.465Z,1017.6
2023-07-11T04:11:02.884Z,1017.6
2023-07-11T04:12:02.478Z,1017.6
2023-07-11T04:13:02.509Z,1017.7
2023-07-11T04:14:02.572Z,1017.6
2023-07-11T04:15:02.516Z,1017.6
2023-07-11T04:16:02.369Z,1017.6
2023-07-11T04:18:02.186Z,1017.6
2023-07-11T04:19:01.968Z,1017.6
2023-07-11T04:20:01.875Z,1017.6
2023-07-11T04:21:01.754Z,1017.6
2023-07-11T04:22:01.850Z,1017.6
2023-07-11T04:23:01.646Z,1017.6
2023-07-11T04:24:01.758Z,1017.7
2023-07-11T04:25:01.735Z,1017.7
2023-07-11T04:26:02.689Z,1017.7
2023-07-11T04:27:02.635Z,1017.7
2023-07-11T04:28:02.591Z,1017.7
2023-07-11T04:29:02.418Z,1017.7
2023-07-11T04:30:02.499Z,1017.7
2023-07-11T04:31:02.450Z,1017.7
2023-07-11T04:32:02.527Z,1017.7
2023-07-11T04:33:02.789Z,1017.7
2023-07-11T04:34:02.510Z,1017.7
2023-07-11T04:35:02.712Z,1017.7
2023-07-11T04:36:02.489Z,1017.7
2023-07-11T04:37:02.504Z,1017.7
2023-07-11T04:38:02.424Z,1017.7
2023-07-11T04:39:02.451Z,1017.7
2023-07-11T04:40:02.290Z,1017.7
2023-07-11T04:41:02.268Z,1017.7
2023-07-11T04:42:02.300Z,1017.7
2023-07-11T04:43:02.400Z,1017.7
2023-07-11T04:44:02.320Z,1017.8
2023-07-11T04:45:02.130Z,1017.7
2023-07-11T04:46:02.107Z,1017.8
2023-07-11T04:47:02.093Z,1017.8
2023-07-11T04:48:02.068Z,1017.8
2023-07-11T04:49:01.735Z,1017.8
2023-07-11T04:50:01.698Z,1017.8
2023-07-11T04:51:01.704Z,1017.8
2023-07-11T04:52:02.592Z,1017.8
2023-07-11T04:53:02.556Z,1017.9
2023-07-11T04:54:02.632Z,1017.9
2023-07-11T04:55:02.563Z,1017.8
2023-07-11T04:56:02.540Z,1017.8
2023-07-11T04:57:02.375Z,1017.8
2023-07-11T04:58:02.408Z,1017.8
2023-07-11T04:59:02.359Z,1017.9
2023-07-11T05:00:02.396Z,1017.9
2023-07-11T05:01:02.364Z,1017.9
2023-07-11T05:03:02.091Z,1018
2023-07-11T05:04:02.063Z,1017.9
2023-07-11T05:05:01.987Z,1018
2023-07-11T05:06:01.832Z,1017.9
2023-07-11T05:07:01.981Z,1018
2023-07-11T05:08:01.797Z,1018
2023-07-11T05:09:01.780Z,1018
2023-07-11T05:10:01.797Z,1018
2023-07-11T05:11:01.761Z,1018
2023-07-11T05:12:01.586Z,1018
2023-07-11T05:13:02.651Z,1018
2023-07-11T05:14:02.692Z,1018
2023-07-11T05:15:02.658Z,1018
2023-07-11T05:16:02.998Z,1018.1
2023-07-11T05:18:02.470Z,1018
2023-07-11T05:19:02.267Z,1018.1
2023-07-11T05:20:02.170Z,1018.1
2023-07-11T05:21:02.160Z,1018.1
2023-07-11T05:22:02.016Z,1018.1
2023-07-11T05:23:02.078Z,1018.1
2023-07-11T05:24:01.933Z,1018.1
2023-07-11T05:25:01.967Z,1018.2
2023-07-11T05:26:01.883Z,1018.2
2023-07-11T05:27:01.938Z,1018.1
2023-07-11T05:28:01.775Z,1018.1
2023-07-11T05:29:01.834Z,1018.2
2023-07-11T05:30:01.668Z,1018.1
2023-07-11T05:31:01.641Z,1018.2
2023-07-11T05:32:02.695Z,1018.1
2023-07-11T05:33:02.603Z,1018.2
2023-07-11T05:34:02.470Z,1018.2
2023-07-11T05:35:02.419Z,1018.2
2023-07-11T05:36:02.241Z,1018.1
2023-07-11T05:37:02.355Z,1018.1
2023-07-11T05:38:02.275Z,1018.2
2023-07-11T05:39:02.213Z,1018.2
2023-07-11T05:40:02.286Z,1018.2
2023-07-11T05:41:02.196Z,1018.1
2023-07-11T05:42:02.085Z,1018.1
2023-07-11T05:43:02.585Z,1018.1
2023-07-11T05:44:02.469Z,1018
2023-07-11T05:45:02.559Z,1018.1
2023-07-11T05:46:02.563Z,1018.1
2023-07-11T05:48:02.485Z,1018.1
2023-07-11T05:49:02.569Z,1018.1
2023-07-11T05:50:02.198Z,1018.1
2023-07-11T05:51:02.227Z,1018.1
2023-07-11T05:52:02.089Z,1018.2
2023-07-11T05:53:02.027Z,1018.1
2023-07-11T05:54:01.974Z,1018.1
2023-07-11T05:55:02.046Z,1018
2023-07-11T05:56:01.977Z,1018.1
2023-07-11T05:57:02.036Z,1018
2023-07-11T05:58:01.864Z,1018
2023-07-11T05:59:01.867Z,1018.1
2023-07-11T06:00:02.948Z,1018.1
2023-07-11T06:01:01.937Z,1018.1
2023-07-11T06:02:01.777Z,1018.1
2023-07-11T06:03:01.922Z,1018.1
2023-07-11T06:04:01.719Z,1018.2
2023-07-11T06:05:01.704Z,1018.1
2023-07-11T06:06:02.604Z,1018.1
2023-07-11T06:07:02.564Z,1018.1
2023-07-11T06:08:02.528Z,1018.1
2023-07-11T06:09:02.379Z,1018.1
2023-07-11T06:10:02.396Z,1018.1
2023-07-11T06:11:02.333Z,1018.1
2023-07-11T06:12:02.192Z,1018.2
2023-07-11T06:13:02.273Z,1018.2
2023-07-11T06:14:02.336Z,1018.2
2023-07-11T06:15:02.066Z,1018.2
2023-07-11T06:16:02.215Z,1018.2
2023-07-11T06:18:01.935Z,1018.2
2023-07-11T06:19:01.649Z,1018.1
2023-07-11T06:20:01.601Z,1018.1
2023-07-11T06:21:01.603Z,1018.2
2023-07-11T06:22:02.597Z,1018.1
2023-07-11T06:23:02.554Z,1018.2
2023-07-11T06:24:02.562Z,1018.1
2023-07-11T06:25:02.489Z,1018.1
2023-07-11T06:26:02.577Z,1018.1
2023-07-11T06:27:02.377Z,1018.1
2023-07-11T06:28:02.460Z,1018.1
2023-07-11T06:29:02.319Z,1018
2023-07-11T06:30:02.217Z,1018
2023-07-11T06:31:05.100Z,1018.1
2023-07-11T06:32:02.705Z,1018.1
2023-07-11T06:33:02.539Z,1018.1
2023-07-11T06:34:02.526Z,1018.1
2023-07-11T06:35:02.414Z,1018.1
2023-07-11T06:36:02.397Z,1018.1
2023-07-11T06:37:02.321Z,1018.1
2023-07-11T06:38:02.159Z,1018
2023-07-11T06:39:02.184Z,1018.2
2023-07-11T06:40:02.082Z,1018
2023-07-11T06:41:02.160Z,1018
2023-07-11T06:42:01.998Z,1018.1
2023-07-11T06:43:02.419Z,1018.1
2023-07-11T06:44:02.036Z,1018.1
2023-07-11T06:45:02.158Z,1018
2023-07-11T06:46:02.234Z,1018.1
2023-07-11T06:47:01.943Z,1018
2023-07-11T06:48:02.023Z,1018.2
2023-07-11T06:49:01.820Z,1018.1
2023-07-11T06:50:01.907Z,1018.1
2023-07-11T06:51:01.694Z,1018
2023-07-11T06:52:01.720Z,1018
2023-07-11T06:53:01.654Z,1018.1
2023-07-11T06:54:02.643Z,1018.1
2023-07-11T06:55:02.531Z,1018.1
2023-07-11T06:56:03.814Z,1018.1
2023-07-11T06:57:01.631Z,1018.1
2023-07-11T06:58:02.644Z,1018.1
2023-07-11T06:59:02.520Z,1018
2023-07-11T07:00:02.912Z,1018.1
2023-07-11T07:01:01.875Z,1018.1
2023-07-11T07:02:01.949Z,1018.1
2023-07-11T07:03:02.061Z,1018.2
2023-07-11T07:04:06.306Z,1018.1
2023-07-11T07:05:03.286Z,1018.1
2023-07-11T07:06:01.982Z,1018.1
2023-07-11T07:07:01.911Z,1018.1
2023-07-11T07:08:15.665Z,1018.1
2023-07-11T07:09:02.416Z,1018.1
2023-07-11T07:10:02.297Z,1018.1
2023-07-11T07:11:02.248Z,1018.1
2023-07-11T07:12:02.513Z,1018.1
2023-07-11T07:13:02.126Z,1018.1
2023-07-11T07:14:07.343Z,1018
2023-07-11T07:15:02.016Z,1018
2023-07-11T07:16:02.055Z,1018.1
2023-07-11T07:17:01.811Z,1018
2023-07-11T07:18:01.823Z,1018.2
2023-07-11T07:19:02.653Z,1018.1
2023-07-11T07:20:02.567Z,1018.1
2023-07-11T07:21:02.532Z,1018.1
2023-07-11T07:22:02.433Z,1018.1
2023-07-11T07:23:02.574Z,1018
2023-07-11T07:24:02.382Z,1018.1
2023-07-11T07:25:25.302Z,1018.1
2023-07-11T07:26:02.103Z,1018.1
2023-07-11T07:27:02.017Z,1018.1
2023-07-11T07:28:01.919Z,1018.1
2023-07-11T07:29:01.995Z,1018
2023-07-11T07:30:01.864Z,1018
2023-07-11T07:31:02.128Z,1018.1
2023-07-11T07:32:02.428Z,1018
2023-07-11T07:33:02.509Z,1018
2023-07-11T07:34:02.325Z,1018
2023-07-11T07:35:02.256Z,1018
2023-07-11T07:36:02.287Z,1018
2023-07-11T07:37:02.185Z,1018.1
2023-07-11T07:38:02.026Z,1018
2023-07-11T07:39:02.035Z,1018
2023-07-11T07:40:01.957Z,1018
2023-07-11T07:41:01.965Z,1018
2023-07-11T07:42:01.784Z,1018
2023-07-11T07:43:02.419Z,1018
2023-07-11T07:44:02.034Z,1017.9
2023-07-11T07:45:02.087Z,1018
2023-07-11T07:46:02.013Z,1018.1
2023-07-11T07:47:02.398Z,1018
2023-07-11T07:48:02.469Z,1018
2023-07-11T07:49:02.202Z,1018
2023-07-11T07:50:02.125Z,1018
2023-07-11T07:51:02.123Z,1018
2023-07-11T07:52:02.050Z,1018.1
2023-07-11T07:53:02.086Z,1018.1
2023-07-11T07:54:02.006Z,1018.1
2023-07-11T07:55:02.018Z,1018
2023-07-11T07:56:01.876Z,1018
2023-07-11T07:57:01.886Z,1018
2023-07-11T07:58:01.748Z,1018.1
2023-07-11T07:59:01.865Z,1018.1
2023-07-11T08:00:01.948Z,1018.1
2023-07-11T08:01:02.026Z,1018.1
2023-07-11T08:02:01.804Z,1018
2023-07-11T08:03:02.325Z,1018.1
2023-07-11T08:04:02.338Z,1018
2023-07-11T08:05:02.450Z,1018.1
2023-07-11T08:06:17.899Z,1018
2023-07-11T08:07:01.697Z,1018.2
2023-07-11T08:08:01.868Z,1018.1
2023-07-11T08:09:01.559Z,1018.1
2023-07-11T08:10:02.660Z,1018.1
2023-07-11T08:11:02.453Z,1018.2
2023-07-11T08:12:02.520Z,1018.1
2023-07-11T08:13:02.423Z,1018.1
2023-07-11T08:14:02.594Z,1018.1
2023-07-11T08:15:02.500Z,1018.2
2023-07-11T08:16:31.278Z,1018.1
2023-07-11T08:18:02.653Z,1018.1
2023-07-11T08:19:02.407Z,1018.1
2023-07-11T08:20:02.483Z,1018.1
2023-07-11T08:21:02.329Z,1018
2023-07-11T08:22:02.440Z,1018.1
2023-07-11T08:23:02.344Z,1018.1
2023-07-11T08:24:02.272Z,1018.1
2023-07-11T08:25:02.268Z,1018.1
2023-07-11T08:26:02.271Z,1018
2023-07-11T08:27:02.169Z,1018
2023-07-11T08:28:02.209Z,1018.1
2023-07-11T08:29:29.951Z,1018.1
2023-07-11T08:30:02.202Z,1018.1
2023-07-11T08:31:02.381Z,1018
2023-07-11T08:32:01.935Z,1018.1
2023-07-11T08:33:02.136Z,1018
2023-07-11T08:34:01.859Z,1018.1
2023-07-11T08:35:01.929Z,1018.1
2023-07-11T08:36:01.735Z,1018.1
2023-07-11T08:37:01.660Z,1018.2
2023-07-11T08:38:05.163Z,1018.1
2023-07-11T08:39:01.703Z,1018.1
2023-07-11T08:40:01.790Z,1018.2
2023-07-11T08:41:01.609Z,1018.2
2023-07-11T08:42:01.735Z,1018.1
2023-07-11T08:43:02.613Z,1018.2
2023-07-11T08:44:02.593Z,1018.2
2023-07-11T08:45:06.060Z,1018.2
2023-07-11T08:46:14.985Z,1018.2
2023-07-11T08:48:01.775Z,1018.2
2023-07-11T08:49:02.612Z,1018.1
2023-07-11T08:50:02.705Z,1018.2
2023-07-11T08:51:02.571Z,1018.2
2023-07-11T08:52:02.400Z,1018.2
2023-07-11T08:53:02.482Z,1018.2
2023-07-11T08:54:02.354Z,1018.2
2023-07-11T08:55:02.383Z,1018.2
2023-07-11T08:56:02.319Z,1018.2
2023-07-11T08:57:02.184Z,1018.1
2023-07-11T08:58:02.214Z,1018.1
2023-07-11T08:59:02.219Z,1018.2
2023-07-11T09:00:02.271Z,1018.2
2023-07-11T09:01:02.352Z,1018.1
2023-07-11T09:02:02.994Z,1018.1
2023-07-11T09:03:02.781Z,1018.2
2023-07-11T09:04:02.658Z,1018.1
2023-07-11T09:05:02.523Z,1018.2
2023-07-11T09:06:02.859Z,1018.2
2023-07-11T09:07:02.622Z,1018.2
2023-07-11T09:08:02.615Z,1018.2
2023-07-11T09:09:02.464Z,1018.2
2023-07-11T09:10:02.600Z,1018.1
2023-07-11T09:11:02.428Z,1018.1
2023-07-11T09:12:02.446Z,1018.1
2023-07-11T09:13:15.936Z,1018.1
2023-07-11T09:14:02.714Z,1018.2
2023-07-11T09:15:02.703Z,1018.2
2023-07-11T09:16:02.607Z,1018.2
2023-07-11T09:17:02.488Z,1018.2
2023-07-11T09:18:02.594Z,1018.2
2023-07-11T09:19:02.351Z,1018.2
2023-07-11T09:20:02.422Z,1018.1
2023-07-11T09:21:02.429Z,1018.2
2023-07-11T09:22:02.261Z,1018.2
2023-07-11T09:23:02.302Z,1018.3
2023-07-11T09:24:22.897Z,1018.2
2023-07-11T09:25:01.910Z,1018.2
2023-07-11T09:26:01.708Z,1018.1
2023-07-11T09:27:02.629Z,1018.1
2023-07-11T09:28:02.498Z,1018.2
2023-07-11T09:29:02.464Z,1018.2
2023-07-11T09:30:02.401Z,1018.2
2023-07-11T09:31:02.715Z,1018
2023-07-11T09:32:02.892Z,1018.2
2023-07-11T09:33:02.804Z,1018.1
2023-07-11T09:34:02.606Z,1018.1
2023-07-11T09:35:02.563Z,1018.1
2023-07-11T09:36:02.399Z,1018.1
2023-07-11T09:37:02.386Z,1018.2
2023-07-11T09:38:02.384Z,1018.1
2023-07-11T09:39:02.347Z,1018.1
2023-07-11T09:40:02.328Z,1018.1
2023-07-11T09:41:02.228Z,1018.2
2023-07-11T09:42:02.219Z,1018.2
2023-07-11T09:43:02.105Z,1018.2
2023-07-11T09:44:02.125Z,1018.2
2023-07-11T09:45:01.971Z,1018.1
2023-07-11T09:46:01.971Z,1018.2
2023-07-11T09:47:02.574Z,1018.2
2023-07-11T09:48:02.645Z,1018.1
2023-07-11T09:49:02.552Z,1018.1
2023-07-11T09:50:02.443Z,1018.1
2023-07-11T09:51:15.269Z,1018.2
2023-07-11T09:52:02.019Z,1018.2
2023-07-11T09:53:02.046Z,1018.2
2023-07-11T09:54:01.880Z,1018.2
2023-07-11T09:55:10.076Z,1018.1
2023-07-11T09:56:14.184Z,1018.2
2023-07-11T09:57:01.984Z,1018.2
2023-07-11T09:58:01.782Z,1018.1
2023-07-11T09:59:01.749Z,1018.1
2023-07-11T10:00:23.514Z,1018.1
2023-07-11T10:01:02.778Z,1018.2
2023-07-11T10:02:02.696Z,1018.2
2023-07-11T10:03:02.749Z,1018.2
2023-07-11T10:04:02.897Z,1018.2
2023-07-11T10:05:02.863Z,1018.1
2023-07-11T10:06:02.590Z,1018.1
2023-07-11T10:07:02.651Z,1018.1
2023-07-11T10:08:02.186Z,1018.1
2023-07-11T10:09:01.917Z,1018.1
2023-07-11T10:10:01.886Z,1018.1
2023-07-11T10:11:01.825Z,1018.1
2023-07-11T10:12:01.792Z,1018.2
2023-07-11T10:13:26.050Z,1018.2
2023-07-11T10:14:02.618Z,1018.1
2023-07-11T10:15:02.267Z,1018.1
2023-07-11T10:16:02.227Z,1018.2
2023-07-11T10:18:01.976Z,1018.2
2023-07-11T10:19:01.805Z,1018.1
2023-07-11T10:20:20.123Z,1018.1
2023-07-11T10:21:02.050Z,1018.1
2023-07-11T10:22:02.094Z,1018.2
2023-07-11T10:23:01.862Z,1018.1
2023-07-11T10:24:01.887Z,1018.1
2023-07-11T10:25:01.732Z,1018.2
2023-07-11T10:26:01.667Z,1018.2
2023-07-11T10:27:01.607Z,1018.1
2023-07-11T10:28:02.654Z,1018.1
2023-07-11T10:29:26.131Z,1018.1
2023-07-11T10:30:01.882Z,1018.1
2023-07-11T10:31:02.007Z,1018.1
2023-07-11T10:32:01.713Z,1018.1
2023-07-11T10:33:26.569Z,1018.1
2023-07-11T10:34:02.511Z,1018.1
2023-07-11T10:35:02.208Z,1018.1
2023-07-11T10:36:02.198Z,1018
2023-07-11T10:37:02.051Z,1018.1
2023-07-11T10:38:02.114Z,1018
2023-07-11T10:39:02.003Z,1018
2023-07-11T10:40:02.050Z,1017.9
2023-07-11T10:41:01.925Z,1018
2023-07-11T10:42:01.844Z,1018.1
2023-07-11T10:43:01.672Z,1018.1
2023-07-11T10:44:01.747Z,1018
2023-07-11T10:45:02.670Z,1018
2023-07-11T10:47:02.539Z,1018
2023-07-11T10:48:02.452Z,1018.1
2023-07-11T10:49:02.196Z,1018
2023-07-11T10:50:02.228Z,1018
2023-07-11T10:51:02.207Z,1018
2023-07-11T10:52:02.052Z,1018
2023-07-11T10:53:02.096Z,1017.9
2023-07-11T10:54:01.992Z,1017.9
2023-07-11T10:55:01.977Z,1018
2023-07-11T10:56:01.835Z,1018
2023-07-11T10:57:01.888Z,1017.9
2023-07-11T10:58:01.740Z,1018
2023-07-11T10:59:01.741Z,1017.9
2023-07-11T11:00:03.322Z,1018
2023-07-11T11:02:02.278Z,1017.9
2023-07-11T11:03:02.548Z,1018
2023-07-11T11:04:02.487Z,1018
2023-07-11T11:05:02.208Z,1017.9
2023-07-11T11:06:03.282Z,1017.9
2023-07-11T11:07:02.263Z,1017.9
2023-07-11T11:08:02.293Z,1017.9
2023-07-11T11:09:02.308Z,1017.9
2023-07-11T11:10:02.207Z,1018
2023-07-11T11:11:02.192Z,1017.9
2023-07-11T11:12:02.018Z,1018
2023-07-11T11:13:02.078Z,1017.9
2023-07-11T11:14:01.975Z,1017.9
2023-07-11T11:15:01.989Z,1018
2023-07-11T11:16:02.614Z,1017.9
2023-07-11T11:17:02.508Z,1017.9
2023-07-11T11:18:02.676Z,1018
2023-07-11T11:19:07.091Z,1017.9
2023-07-11T11:20:02.031Z,1017.9
2023-07-11T11:21:24.193Z,1017.9
2023-07-11T11:22:02.210Z,1017.9
2023-07-11T11:23:01.974Z,1017.9
2023-07-11T11:24:01.992Z,1017.9
2023-07-11T11:25:02.664Z,1017.9
2023-07-11T11:26:02.244Z,1017.9
2023-07-11T11:27:02.308Z,1017.9
2023-07-11T11:28:02.240Z,1017.9
2023-07-11T11:29:02.994Z,1018
2023-07-11T11:30:02.354Z,1017.8
2023-07-11T11:31:02.136Z,1017.8
2023-07-11T11:32:02.041Z,1017.8
2023-07-11T11:33:02.087Z,1017.8
2023-07-11T11:34:01.920Z,1017.9
2023-07-11T11:35:17.259Z,1017.9
2023-07-11T11:36:01.930Z,1017.8
2023-07-11T11:37:02.062Z,1017.8
2023-07-11T11:38:02.007Z,1017.8
2023-07-11T11:39:01.912Z,1017.9
2023-07-11T11:40:01.769Z,1017.8
2023-07-11T11:41:01.777Z,1017.7
2023-07-11T11:42:01.669Z,1017.8
2023-07-11T11:43:03.340Z,1017.8
2023-07-11T11:46:32.568Z,1017.8
2023-07-11T11:46:34.802Z,1017.7
2023-07-11T11:49:21.155Z,1017.7
2023-07-11T11:49:21.186Z,1017.8
2023-07-11T11:51:14.752Z,1017.7
2023-07-11T11:52:02.543Z,1017.7
2023-07-11T11:53:02.476Z,1017.7
2023-07-11T11:54:02.430Z,1017.7
2023-07-11T11:55:02.475Z,1017.6
2023-07-11T11:56:25.128Z,1017.7
2023-07-11T11:57:02.064Z,1017.7
2023-07-11T11:58:02.140Z,1017.7
2023-07-11T11:59:02.205Z,1017.7
2023-07-11T12:00:02.083Z,1017.7
2023-07-11T12:01:01.863Z,1017.7
2023-07-11T12:02:01.939Z,1017.7
2023-07-11T12:03:02.266Z,1017.7
2023-07-11T12:04:02.110Z,1017.7
2023-07-11T12:05:02.297Z,1017.7
2023-07-11T12:06:01.870Z,1017.7
2023-07-11T12:07:01.952Z,1017.7
2023-07-11T12:08:01.814Z,1017.7
2023-07-11T12:09:01.861Z,1017.7
2023-07-11T12:10:01.786Z,1017.7
2023-07-11T12:11:01.693Z,1017.7
2023-07-11T12:12:01.618Z,1017.7
2023-07-11T12:13:02.653Z,1017.7
2023-07-11T12:14:02.588Z,1017.7
2023-07-11T12:15:02.600Z,1017.7
2023-07-11T12:16:02.369Z,1017.7
2023-07-11T12:17:02.555Z,1017.7
2023-07-11T12:18:02.526Z,1017.7
2023-07-11T12:19:02.267Z,1017.7
2023-07-11T12:20:02.854Z,1017.7
2023-07-11T12:21:01.633Z,1017.6
2023-07-11T12:22:02.677Z,1017.7
2023-07-11T12:23:45.831Z,1017.6
2023-07-11T12:24:44.015Z,1017.7
2023-07-11T12:25:02.086Z,1017.7
2023-07-11T12:26:02.108Z,1017.6
2023-07-11T12:27:01.943Z,1017.6
2023-07-11T12:28:02.328Z,1017.6
2023-07-11T12:29:02.294Z,1017.6
2023-07-11T12:30:02.024Z,1017.7
2023-07-11T12:31:02.187Z,1017.7
2023-07-11T12:32:02.298Z,1017.6
2023-07-11T12:33:02.396Z,1017.7
2023-07-11T12:34:02.099Z,1017.6
2023-07-11T12:35:02.123Z,1017.6
2023-07-11T12:36:02.007Z,1017.6
2023-07-11T12:37:03.813Z,1017.7
2023-07-11T12:38:02.960Z,1017.7
2023-07-11T12:39:01.672Z,1017.7
2023-07-11T12:40:02.676Z,1017.7
2023-07-11T12:41:02.583Z,1017.6
2023-07-11T12:42:02.601Z,1017.6
2023-07-11T12:43:02.448Z,1017.6
2023-07-11T12:44:07.055Z,1017.6
2023-07-11T12:45:03.102Z,1017.6
2023-07-11T12:47:01.654Z,1017.6
2023-07-11T12:48:01.791Z,1017.6
2023-07-11T12:49:02.622Z,1017.6
2023-07-11T12:50:02.680Z,1017.6